Time;durP1;ratioP1;P1;durP2;ratioP2;P2;SDS_P1;SDS_P2;PMS_P1;PMS_P2;Temp;Humidity;BMP_temperature;BMP_pressure;BME280_temperature;BME280_humidity;BME280_pressure;Samples;Min_cycle;Max_cycle;Signal;HPM_P1;HPM_P2
2022/05/11 00:01:26;;;;;;;17.67;11.77;;;12.70;99.90;;;;;;4962911;28;20080;-35
2022/05/11 00:03:56;;;;;;;21.60;12.02;;;12.80;99.90;;;;;;4966115;28;20181;-35
2022/05/11 00:06:22;;;;;;;20.65;11.77;;;12.70;99.90;;;;;;4952440;28;20050;-36
2022/05/11 00:08:48;;;;;;;22.13;12.07;;;12.70;99.90;;;;;;4960914;28;20047;-35
2022/05/11 00:11:14;;;;;;;23.95;12.13;;;12.70;99.90;;;;;;4967168;28;20073;-35
2022/05/11 00:13:41;;;;;;;18.67;11.88;;;12.70;99.90;;;;;;4965397;28;20133;-35
2022/05/11 00:16:06;;;;;;;20.27;11.63;;;12.70;99.90;;;;;;4963791;28;20039;-35
2022/05/11 00:18:32;;;;;;;23.63;12.18;;;12.70;99.90;;;;;;4941801;28;20048;-35
2022/05/11 00:20:58;;;;;;;19.48;11.18;;;12.70;99.90;;;;;;4967004;28;20137;-35
2022/05/11 00:23:24;;;;;;;22.33;12.20;;;12.70;99.90;;;;;;4963086;28;20406;-35
2022/05/11 00:25:49;;;;;;;21.00;12.75;;;12.70;99.90;;;;;;4959401;28;20284;-35
2022/05/11 00:28:15;;;;;;;22.40;12.40;;;12.70;99.90;;;;;;4932565;28;20051;-35
2022/05/11 00:30:42;;;;;;;20.85;12.57;;;12.80;99.90;;;;;;4955016;28;20044;-35
2022/05/11 00:33:10;;;;;;;21.70;13.18;;;12.70;99.90;;;;;;4947626;28;20083;-35
2022/05/11 00:35:36;;;;;;;21.30;12.63;;;12.80;99.90;;;;;;4948160;28;20038;-35
2022/05/11 00:38:03;;;;;;;20.20;13.32;;;12.80;99.90;;;;;;4932911;28;20105;-35
2022/05/11 00:40:29;;;;;;;23.25;12.88;;;12.80;99.90;;;;;;4963688;28;20051;-35
2022/05/11 00:42:55;;;;;;;21.52;12.65;;;12.90;99.90;;;;;;4957710;28;20674;-35
2022/05/11 00:45:21;;;;;;;21.52;12.80;;;12.90;99.90;;;;;;4949635;28;20047;-35
2022/05/11 00:47:56;;;;;;;21.35;13.30;;;12.90;99.90;;;;;;4933802;28;20054;-35
2022/05/11 00:50:32;;;;;;;22.70;13.13;;;12.90;99.90;;;;;;4955033;28;20044;-35
2022/05/11 00:53:11;;;;;;;22.13;12.70;;;12.90;99.90;;;;;;4952704;28;20067;-35
2022/05/11 00:55:44;;;;;;;24.63;13.45;;;12.90;99.90;;;;;;4950506;28;20146;-35
2022/05/11 00:58:14;;;;;;;20.98;12.80;;;12.90;99.90;;;;;;4932967;28;20074;-35
2022/05/11 01:00:43;;;;;;;22.63;13.25;;;13.00;99.90;;;;;;4962342;28;20050;-35
2022/05/11 01:03:13;;;;;;;19.58;12.82;;;12.90;99.90;;;;;;4958250;28;20038;-35
2022/05/11 01:05:42;;;;;;;26.48;14.18;;;13.00;99.90;;;;;;4962563;28;20049;-35
2022/05/11 01:08:08;;;;;;;19.73;12.45;;;13.00;99.90;;;;;;4950011;28;20053;-35
2022/05/11 01:10:34;;;;;;;20.83;12.80;;;13.00;99.90;;;;;;4964582;28;20054;-35
2022/05/11 01:13:04;;;;;;;21.65;13.85;;;13.10;99.90;;;;;;4952745;28;20047;-35
2022/05/11 01:15:33;;;;;;;20.83;12.63;;;13.10;99.90;;;;;;4956640;28;20390;-35
2022/05/11 01:18:01;;;;;;;20.60;13.65;;;13.10;99.90;;;;;;4950208;28;20294;-35
2022/05/11 01:20:29;;;;;;;19.90;13.13;;;13.10;99.90;;;;;;4964860;28;20050;-35
2022/05/11 01:23:16;;;;;;;19.65;12.82;;;13.10;99.90;;;;;;4949310;28;20522;-35
2022/05/11 01:25:42;;;;;;;21.83;13.35;;;13.10;99.90;;;;;;4951705;28;20062;-35
2022/05/11 01:28:12;;;;;;;22.25;13.68;;;13.10;99.90;;;;;;4933843;28;20043;-35
2022/05/11 01:30:40;;;;;;;20.27;13.40;;;13.10;99.90;;;;;;4961599;28;20051;-35
2022/05/11 01:33:07;;;;;;;25.92;13.65;;;13.20;99.90;;;;;;4965071;28;20051;-35
2022/05/11 01:36:07;;;;;;;18.58;12.27;;;13.10;99.90;;;;;;4965418;28;20154;-35
2022/05/11 01:38:56;;;;;;;19.90;12.48;;;13.10;99.90;;;;;;4947556;28;20066;-35
2022/05/11 01:41:38;;;;;;;20.10;12.38;;;13.10;99.90;;;;;;4953160;28;20086;-35
2022/05/11 01:44:08;;;;;;;18.98;13.18;;;13.10;99.90;;;;;;4952200;28;20089;-35
2022/05/11 01:46:34;;;;;;;19.48;12.18;;;13.10;99.90;;;;;;4939470;28;20422;-35
2022/05/11 01:49:00;;;;;;;20.92;12.35;;;13.00;99.90;;;;;;4966108;28;20047;-35
2022/05/11 01:51:26;;;;;;;20.50;12.13;;;13.00;99.90;;;;;;4965516;28;20112;-35
2022/05/11 01:53:52;;;;;;;22.27;12.27;;;13.00;99.90;;;;;;4964764;28;20050;-35
2022/05/11 01:56:20;;;;;;;20.25;11.88;;;13.00;99.90;;;;;;4948712;28;20043;-36
2022/05/11 01:58:46;;;;;;;22.33;13.07;;;13.00;99.90;;;;;;4959439;28;20078;-35
2022/05/11 02:01:15;;;;;;;19.05;10.88;;;13.10;99.90;;;;;;4979467;28;20047;-35
2022/05/11 02:03:41;;;;;;;20.13;11.93;;;13.00;99.90;;;;;;4960588;28;20074;-35
2022/05/11 02:08:51;;;;;;;20.15;11.20;;;13.10;99.90;;;;;;4948694;28;20469;-35
2022/05/11 02:11:17;;;;;;;17.45;11.15;;;13.00;99.90;;;;;;4964809;28;20046;-35
2022/05/11 02:13:44;;;;;;;17.75;11.07;;;13.00;99.90;;;;;;4944396;28;20141;-35
2022/05/11 02:16:11;;;;;;;18.30;11.32;;;13.00;99.90;;;;;;4946800;28;20048;-36
2022/05/11 02:18:37;;;;;;;16.48;11.25;;;13.00;99.90;;;;;;4940134;28;20043;-35
2022/05/11 02:21:04;;;;;;;14.45;10.80;;;13.00;99.90;;;;;;4965665;28;20184;-35
2022/05/11 02:23:30;;;;;;;16.60;11.27;;;13.00;99.90;;;;;;4962976;28;20071;-35
2022/05/11 02:25:57;;;;;;;15.52;11.07;;;13.00;99.90;;;;;;4962812;28;20539;-35
2022/05/11 02:28:23;;;;;;;14.93;10.45;;;13.00;99.90;;;;;;4931266;28;20059;-35
2022/05/11 02:30:51;;;;;;;14.70;10.18;;;13.00;99.90;;;;;;4965200;28;20049;-35
2022/05/11 02:33:17;;;;;;;16.45;10.23;;;13.00;99.90;;;;;;4948429;28;20052;-35
2022/05/11 02:35:43;;;;;;;16.83;10.52;;;13.00;99.90;;;;;;4949495;28;20050;-35
2022/05/11 02:38:12;;;;;;;14.70;10.52;;;13.10;99.90;;;;;;4948476;28;20197;-35
2022/05/11 02:40:40;;;;;;;16.30;10.15;;;13.00;99.90;;;;;;4963844;28;20065;-35
2022/05/11 02:43:08;;;;;;;18.75;9.77;;;13.00;99.90;;;;;;4946888;28;20051;-35
2022/05/11 02:45:35;;;;;;;17.17;10.77;;;13.00;99.90;;;;;;4947320;28;20059;-35
2022/05/11 02:48:03;;;;;;;18.85;12.00;;;13.00;99.90;;;;;;4945607;28;20063;-35
2022/05/11 02:50:37;;;;;;;15.45;10.13;;;13.00;99.90;;;;;;4956397;28;20047;-35
2022/05/11 02:53:07;;;;;;;16.70;10.32;;;13.00;99.90;;;;;;4965167;28;20047;-35
2022/05/11 02:55:43;;;;;;;16.15;10.93;;;13.00;99.90;;;;;;4962480;28;20498;-35
2022/05/11 02:58:09;;;;;;;22.33;10.98;;;13.00;99.90;;;;;;4950371;28;20043;-35
2022/05/11 03:00:37;;;;;;;18.23;10.18;;;13.00;99.90;;;;;;4961756;28;20050;-35
2022/05/11 03:03:04;;;;;;;18.75;10.57;;;13.00;99.90;;;;;;4949486;28;20055;-35
2022/05/11 03:05:30;;;;;;;15.55;10.45;;;13.00;99.90;;;;;;4966909;28;20051;-35
2022/05/11 03:07:56;;;;;;;18.40;10.25;;;13.00;99.90;;;;;;4951165;28;20039;-35
2022/05/11 03:10:22;;;;;;;14.98;9.82;;;13.00;99.90;;;;;;4966862;28;20122;-35
2022/05/11 03:12:48;;;;;;;18.00;10.45;;;13.00;99.90;;;;;;4967570;28;20057;-35
2022/05/11 03:15:13;;;;;;;16.67;10.98;;;13.00;99.90;;;;;;4967986;28;20070;-35
2022/05/11 03:17:39;;;;;;;16.27;9.52;;;13.10;99.90;;;;;;4948851;28;20437;-35
2022/05/11 03:20:06;;;;;;;15.52;10.75;;;13.00;99.90;;;;;;4961884;28;20546;-35
2022/05/11 03:22:32;;;;;;;17.67;10.30;;;13.00;99.90;;;;;;4958076;28;20050;-35
2022/05/11 03:24:58;;;;;;;18.73;9.88;;;13.00;99.90;;;;;;4967664;28;20054;-35
2022/05/11 03:27:24;;;;;;;16.50;10.13;;;13.00;99.90;;;;;;4937795;28;20075;-35
2022/05/11 03:29:51;;;;;;;14.90;10.30;;;13.00;99.90;;;;;;4964573;28;20362;-36
2022/05/11 03:35:02;;;;;;;15.35;10.15;;;12.90;99.90;;;;;;4952582;28;20054;-35
2022/05/11 03:37:28;;;;;;;12.75;9.38;;;12.90;99.90;;;;;;4938914;28;20063;-36
2022/05/11 03:39:54;;;;;;;16.95;9.98;;;12.90;99.90;;;;;;4959631;28;20070;-35
2022/05/11 03:42:22;;;;;;;14.45;9.48;;;12.90;99.90;;;;;;4953828;28;20039;-35
2022/05/11 03:44:48;;;;;;;19.55;9.30;;;13.00;99.90;;;;;;4955204;28;20059;-35
2022/05/11 03:47:14;;;;;;;15.43;9.02;;;13.00;99.90;;;;;;4952194;28;20481;-35
2022/05/11 03:49:39;;;;;;;16.35;8.75;;;12.90;99.90;;;;;;4973838;28;20058;-35
2022/05/11 03:52:06;;;;;;;14.82;9.45;;;12.90;99.90;;;;;;4966856;28;20138;-36
2022/05/11 03:54:32;;;;;;;14.57;9.43;;;13.00;99.90;;;;;;4967186;28;20068;-35
2022/05/11 03:56:58;;;;;;;14.35;8.68;;;12.90;99.90;;;;;;4949714;28;20047;-35
2022/05/11 03:59:23;;;;;;;13.63;8.63;;;12.90;99.90;;;;;;4964416;28;20047;-35
2022/05/11 04:01:49;;;;;;;11.60;7.82;;;12.90;99.90;;;;;;4957780;28;20047;-35
2022/05/11 04:04:15;;;;;;;19.92;11.02;;;12.90;99.90;;;;;;4957859;28;20058;-35
2022/05/11 04:06:40;;;;;;;12.18;8.07;;;13.00;99.90;;;;;;4963889;28;20547;-35
2022/05/11 04:09:06;;;;;;;28.75;15.75;;;12.90;99.90;;;;;;4949740;28;20521;-35
2022/05/11 04:11:33;;;;;;;16.25;9.50;;;12.90;99.90;;;;;;4956331;28;20050;-35
2022/05/11 04:13:59;;;;;;;14.73;8.98;;;13.00;99.90;;;;;;4966702;28;20051;-35
2022/05/11 04:16:24;;;;;;;15.00;8.13;;;12.90;99.90;;;;;;4954890;28;20043;-35
2022/05/11 04:18:50;;;;;;;16.17;7.72;;;13.00;99.90;;;;;;4962992;28;20050;-35
2022/05/11 04:21:16;;;;;;;15.25;9.45;;;13.00;99.90;;;;;;4965919;28;20100;-35
2022/05/11 04:23:42;;;;;;;15.43;8.70;;;13.00;99.90;;;;;;4966252;28;20177;-35
2022/05/11 04:26:09;;;;;;;24.55;13.02;;;12.90;99.90;;;;;;4958477;28;20047;-36
2022/05/11 04:28:35;;;;;;;17.70;9.27;;;13.00;99.90;;;;;;4939350;28;20055;-35
2022/05/11 04:31:03;;;;;;;15.23;8.88;;;13.00;99.90;;;;;;4965405;28;20493;-35
2022/05/11 04:33:29;;;;;;;20.95;11.13;;;13.00;99.90;;;;;;4966188;28;20590;-35
2022/05/11 04:35:55;;;;;;;14.45;8.57;;;13.00;99.90;;;;;;4966343;28;20039;-36
2022/05/11 04:38:20;;;;;;;14.43;8.70;;;12.90;99.90;;;;;;4948946;28;20050;-35
2022/05/11 04:40:46;;;;;;;16.05;6.97;;;13.10;99.90;;;;;;4953545;28;20057;-35
2022/05/11 04:43:12;;;;;;;14.77;8.18;;;13.00;99.90;;;;;;4954646;28;20138;-35
2022/05/11 04:45:42;;;;;;;15.95;8.23;;;13.00;99.90;;;;;;4954324;28;20058;-35
2022/05/11 04:48:09;;;;;;;11.77;5.75;;;13.00;99.90;;;;;;4939495;28;20051;-35
2022/05/11 04:50:38;;;;;;;14.75;8.15;;;13.10;99.90;;;;;;4958955;28;20040;-35
2022/05/11 04:53:04;;;;;;;12.95;7.20;;;13.00;99.90;;;;;;4947749;28;20434;-35
2022/05/11 04:55:30;;;;;;;14.68;7.47;;;13.10;99.90;;;;;;4952051;28;20097;-35
2022/05/11 04:57:56;;;;;;;14.00;7.35;;;13.10;99.90;;;;;;4950682;28;20126;-35
2022/05/11 05:00:21;;;;;;;12.65;7.25;;;13.10;99.90;;;;;;4959489;28;20471;-35
2022/05/11 05:02:47;;;;;;;11.60;7.38;;;13.10;99.90;;;;;;4947694;28;20463;-35
2022/05/11 05:05:13;;;;;;;12.52;7.13;;;13.10;99.90;;;;;;4960805;28;20067;-35
2022/05/11 05:07:41;;;;;;;14.77;7.18;;;13.20;99.90;;;;;;4950810;28;20138;-36
2022/05/11 05:10:09;;;;;;;13.90;7.22;;;13.10;99.90;;;;;;4958985;28;20043;-35
2022/05/11 05:12:35;;;;;;;13.27;7.40;;;13.10;99.90;;;;;;4946605;28;20054;-35
2022/05/11 05:15:01;;;;;;;26.83;15.35;;;13.20;99.90;;;;;;4950447;28;20100;-35
2022/05/11 05:17:27;;;;;;;16.88;7.82;;;13.20;99.90;;;;;;4943153;28;20130;-36
2022/05/11 05:19:53;;;;;;;13.82;7.25;;;13.10;99.90;;;;;;4956886;28;20129;-35
2022/05/11 05:22:19;;;;;;;18.52;9.25;;;13.20;99.90;;;;;;4961236;28;20036;-35
2022/05/11 05:24:45;;;;;;;15.93;7.20;;;13.20;99.90;;;;;;4954124;28;20065;-35
2022/05/11 05:27:13;;;;;;;16.17;9.20;;;13.30;99.90;;;;;;4938976;28;20513;-35
2022/05/11 05:32:23;;;;;;;13.80;7.32;;;13.30;99.90;;;;;;4947414;28;22046;-35
2022/05/11 05:34:49;;;;;;;14.82;6.47;;;13.30;99.90;;;;;;4950771;28;20122;-36
2022/05/11 05:37:17;;;;;;;16.15;6.57;;;13.30;99.90;;;;;;4935178;28;20433;-35
2022/05/11 05:39:46;;;;;;;17.25;8.32;;;13.40;99.90;;;;;;4956545;28;20058;-35
2022/05/11 05:42:19;;;;;;;12.77;6.43;;;13.40;99.90;;;;;;4959505;28;20654;-35
2022/05/11 05:44:46;;;;;;;16.10;6.40;;;13.40;99.90;;;;;;4962809;28;20197;-35
2022/05/11 05:47:13;;;;;;;12.60;6.57;;;13.40;99.90;;;;;;4950493;28;20154;-36
2022/05/11 05:49:39;;;;;;;16.52;6.85;;;13.40;99.90;;;;;;4966448;28;20093;-35
2022/05/11 05:52:06;;;;;;;12.85;6.53;;;13.50;99.90;;;;;;4946069;28;20222;-36
2022/05/11 05:54:35;;;;;;;16.75;6.53;;;13.50;99.90;;;;;;4967281;28;20553;-35
2022/05/11 05:57:00;;;;;;;16.60;7.13;;;13.50;99.90;;;;;;4944354;28;20560;-35
2022/05/11 05:59:26;;;;;;;14.88;6.50;;;13.60;99.90;;;;;;4963710;28;20043;-35
2022/05/11 06:01:52;;;;;;;14.95;6.75;;;13.60;99.90;;;;;;4953506;28;20047;-35
2022/05/11 06:04:18;;;;;;;12.30;6.47;;;13.70;99.90;;;;;;4954659;28;20047;-35
2022/05/11 06:06:44;;;;;;;18.45;6.78;;;13.90;99.90;;;;;;4949271;28;20039;-36
2022/05/11 06:09:09;;;;;;;12.63;6.30;;;13.80;99.90;;;;;;4954860;28;20054;-35
2022/05/11 06:11:36;;;;;;;13.75;6.47;;;13.70;99.90;;;;;;4953230;28;20557;-35
2022/05/11 06:14:03;;;;;;;16.48;6.85;;;13.90;99.90;;;;;;4945766;28;20163;-37
2022/05/11 06:16:29;;;;;;;18.67;6.35;;;13.90;99.90;;;;;;4936212;28;20325;-37
2022/05/11 06:18:54;;;;;;;12.50;6.28;;;13.90;99.90;;;;;;4954125;28;20051;-37
2022/05/11 06:21:20;;;;;;;13.23;6.28;;;14.00;99.90;;;;;;4957399;28;20083;-37
2022/05/11 06:23:46;;;;;;;16.80;6.43;;;14.00;99.90;;;;;;4956780;28;20052;-34
2022/05/11 06:26:12;;;;;;;16.33;6.53;;;14.10;99.90;;;;;;4946735;28;20469;-34
2022/05/11 06:28:40;;;;;;;13.45;6.70;;;14.20;99.90;;;;;;4950721;28;20470;-34
2022/05/11 06:31:07;;;;;;;14.82;6.15;;;14.20;99.90;;;;;;4959860;28;20494;-34
2022/05/11 06:33:33;;;;;;;17.90;6.90;;;14.30;99.90;;;;;;4957960;28;20084;-34
2022/05/11 06:36:00;;;;;;;15.65;6.60;;;14.30;99.90;;;;;;4964284;28;20039;-34
2022/05/11 06:38:26;;;;;;;14.32;6.80;;;14.40;99.90;;;;;;4942996;28;20053;-34
2022/05/11 06:40:51;;;;;;;15.10;7.07;;;14.40;99.90;;;;;;4959998;28;20044;-34
2022/05/11 06:43:18;;;;;;;15.80;6.75;;;14.50;99.90;;;;;;4956845;28;20061;-34
2022/05/11 06:45:44;;;;;;;12.88;6.72;;;14.50;99.90;;;;;;4962176;28;20046;-34
2022/05/11 06:48:09;;;;;;;16.60;6.50;;;14.50;99.90;;;;;;4943517;28;20043;-34
2022/05/11 06:50:35;;;;;;;18.10;6.43;;;14.60;99.90;;;;;;4970945;28;20444;-34
2022/05/11 06:53:10;;;;;;;16.77;6.35;;;14.60;99.90;;;;;;4961553;28;20054;-34
2022/05/11 07:01:11;;;;;;;15.30;6.40;;;14.70;99.90;;;;;;4962411;28;20483;-34
2022/05/11 07:03:36;;;;;;;15.02;6.88;;;14.70;99.90;;;;;;4956626;28;20035;-34
2022/05/11 07:06:03;;;;;;;15.30;6.10;;;14.80;99.90;;;;;;4962272;28;20516;-34
2022/05/11 07:08:42;;;;;;;21.88;7.32;;;14.80;99.90;;;;;;4943508;28;20043;-34
2022/05/11 07:13:55;;;;;;;16.75;6.15;;;14.80;99.90;;;;;;4955365;28;20478;-34
2022/05/11 07:16:21;;;;;;;17.70;6.80;;;14.90;99.90;;;;;;4957681;28;20043;-35
2022/05/11 07:18:49;;;;;;;17.60;6.88;;;14.90;99.90;;;;;;4959575;28;20096;-34
2022/05/11 07:21:14;;;;;;;18.15;6.75;;;14.90;99.90;;;;;;4967446;28;20069;-34
2022/05/11 07:23:40;;;;;;;14.40;6.43;;;14.90;99.90;;;;;;4941893;28;20635;-34
2022/05/11 07:26:06;;;;;;;13.55;6.18;;;15.10;99.90;;;;;;4942571;28;20041;-35
2022/05/11 07:28:32;;;;;;;18.20;5.95;;;15.00;99.90;;;;;;4928285;28;20504;-35
2022/05/11 07:30:57;;;;;;;15.60;5.50;;;15.10;99.90;;;;;;4943973;28;20047;-34
2022/05/11 07:33:24;;;;;;;15.90;5.43;;;15.20;99.90;;;;;;4943353;28;20043;-34
2022/05/11 07:35:50;;;;;;;14.45;4.72;;;15.20;99.90;;;;;;4944061;28;20054;-35
2022/05/11 07:38:17;;;;;;;15.85;4.82;;;15.30;99.90;;;;;;4928342;28;20403;-35
2022/05/11 07:40:44;;;;;;;19.33;4.72;;;15.30;99.90;;;;;;4945056;28;20054;-34
2022/05/11 07:43:10;;;;;;;17.42;4.85;;;15.40;99.90;;;;;;4944754;28;20042;-35
2022/05/11 07:45:38;;;;;;;13.90;4.68;;;15.40;99.90;;;;;;4941790;28;20111;-35
2022/05/11 07:48:04;;;;;;;16.92;4.57;;;15.40;99.90;;;;;;4926855;28;20051;-35
2022/05/11 07:50:31;;;;;;;19.00;4.65;;;15.50;99.90;;;;;;4944427;28;20043;-35
2022/05/11 07:52:57;;;;;;;12.02;4.30;;;15.60;99.90;;;;;;4941963;28;20054;-34
2022/05/11 07:55:27;;;;;;;14.05;4.05;;;15.60;99.90;;;;;;4940573;28;20065;-35
2022/05/11 08:00:39;;;;;;;10.40;4.15;;;15.80;99.90;;;;;;4944389;28;20057;-34
2022/05/11 08:03:08;;;;;;;18.08;5.18;;;15.80;99.90;;;;;;4942167;28;20564;-35
2022/05/11 08:05:34;;;;;;;16.70;4.78;;;15.90;99.90;;;;;;4942086;28;20110;-35
2022/05/11 08:08:03;;;;;;;15.48;4.60;;;15.90;99.90;;;;;;4926723;28;20142;-35
2022/05/11 08:10:34;;;;;;;13.35;4.82;;;16.00;99.90;;;;;;4942006;28;20391;-35
2022/05/11 08:13:05;;;;;;;18.75;4.57;;;15.90;99.90;;;;;;4942733;28;20050;-35
2022/05/11 08:15:32;;;;;;;18.20;4.78;;;15.90;99.90;;;;;;4946138;28;21151;-35
2022/05/11 08:17:59;;;;;;;16.63;4.63;;;16.00;99.90;;;;;;4925348;28;20543;-35
2022/05/11 08:20:28;;;;;;;20.30;5.00;;;16.00;99.90;;;;;;4942102;28;20047;-34
2022/05/11 08:22:55;;;;;;;15.65;4.60;;;16.00;99.90;;;;;;4935728;28;20039;-35
2022/05/11 08:25:24;;;;;;;12.45;4.60;;;16.00;99.90;;;;;;4940028;28;20050;-34
2022/05/11 08:27:51;;;;;;;16.48;4.60;;;16.10;99.90;;;;;;4914973;28;20075;-35
2022/05/11 08:33:21;;;;;;;15.05;4.40;;;16.20;99.90;;;;;;4939902;28;20141;-35
2022/05/11 08:35:49;;;;;;;16.73;4.18;;;16.30;99.90;;;;;;4937155;28;20564;-35
2022/05/11 08:38:19;;;;;;;12.38;4.30;;;16.30;99.90;;;;;;4920751;28;20119;-35
2022/05/11 08:41:11;;;;;;;16.55;4.57;;;16.40;99.90;;;;;;4938878;28;20127;-35
2022/05/11 08:43:37;;;;;;;20.17;4.70;;;16.40;99.90;;;;;;4931302;28;20069;-35
2022/05/11 08:46:21;;;;;;;18.70;4.45;;;16.50;99.90;;;;;;4941950;28;20051;-35
2022/05/11 08:49:28;;;;;;;16.30;4.20;;;16.50;99.90;;;;;;4936480;28;20065;-35
2022/05/11 08:52:05;;;;;;;16.33;3.95;;;16.50;99.90;;;;;;4915416;28;20051;-35
2022/05/11 08:54:47;;;;;;;17.08;4.47;;;16.50;99.90;;;;;;4928860;28;20051;-35
2022/05/11 08:57:16;;;;;;;;;;;16.50;99.90;;;;;;4923161;28;20084;-35
2022/05/11 08:59:43;;;;;;;14.52;3.78;;;16.50;99.90;;;;;;4935183;28;19937;-34
2022/05/11 09:02:29;;;;;;;13.82;4.40;;;16.50;99.90;;;;;;4932362;28;20050;-35
2022/05/11 09:05:00;;;;;;;13.13;3.97;;;16.50;99.90;;;;;;4939493;28;20079;-35
2022/05/11 09:07:37;;;;;;;12.05;3.95;;;16.50;99.90;;;;;;4926444;28;20054;-35
2022/05/11 09:10:06;;;;;;;16.98;4.32;;;16.50;99.90;;;;;;4937463;28;20497;-35
2022/05/11 09:12:31;;;;;;;18.15;5.07;;;16.50;99.90;;;;;;4932227;28;20050;-35
2022/05/11 09:14:59;;;;;;;17.38;4.57;;;16.50;99.90;;;;;;4937520;28;20053;-35
2022/05/11 09:17:33;;;;;;;14.73;4.32;;;16.60;99.90;;;;;;4923771;28;20047;-35
2022/05/11 09:20:10;;;;;;;13.32;3.35;;;16.70;99.90;;;;;;4935624;28;20070;-35
2022/05/11 09:22:40;;;;;;;20.33;4.18;;;16.80;99.90;;;;;;4937110;28;20051;-35
2022/05/11 09:25:17;;;;;;;12.00;3.65;;;16.80;99.90;;;;;;4935445;28;20104;-35
2022/05/11 09:27:43;;;;;;;13.27;3.20;;;16.90;99.90;;;;;;4923268;28;20043;-35
2022/05/11 09:30:25;;;;;;;10.23;2.55;;;17.00;99.90;;;;;;4939307;28;20533;-35
2022/05/11 09:33:11;;;;;;;11.52;3.30;;;17.00;99.90;;;;;;4935123;28;21053;-35
2022/05/11 09:35:37;;;;;;;10.38;2.83;;;17.00;99.90;;;;;;4938461;28;20544;-35
2022/05/11 09:38:07;;;;;;;7.47;2.50;;;17.00;99.90;;;;;;4923340;28;20063;-35
2022/05/11 09:41:04;;;;;;;14.93;3.10;;;17.00;99.90;;;;;;4938589;28;21180;-35
2022/05/11 09:43:38;;;;;;;9.93;2.50;;;17.00;99.90;;;;;;4933572;28;20297;-35
2022/05/11 09:46:33;;;;;;;7.20;2.47;;;16.90;99.90;;;;;;4940837;28;20059;-35
2022/05/11 09:49:05;;;;;;;9.57;2.50;;;16.90;99.90;;;;;;4936180;28;21371;-35
2022/05/11 09:51:40;;;;;;;11.00;2.50;;;16.80;99.90;;;;;;4940655;28;20051;-35
2022/05/11 09:54:34;;;;;;;10.45;2.10;;;16.90;99.90;;;;;;5002530;27;20440;-35
2022/05/11 09:57:09;;;;;;;10.60;2.20;;;17.00;99.90;;;;;;4985126;28;20054;-35
2022/05/11 09:59:39;;;;;;;10.13;2.47;;;17.00;99.90;;;;;;5000138;28;20066;-34
2022/05/11 10:02:38;;;;;;;10.82;2.63;;;17.10;99.90;;;;;;4997062;28;20115;-34
2022/05/11 10:05:13;;;;;;;13.00;2.45;;;17.10;99.90;;;;;;5001802;28;20528;-34
2022/05/11 10:07:48;;;;;;;10.02;2.85;;;17.20;99.90;;;;;;4986449;28;20125;-35
2022/05/11 10:10:36;;;;;;;11.30;2.33;;;17.10;99.90;;;;;;5001834;28;20060;-35
2022/05/11 10:13:37;;;;;;;12.23;2.05;;;17.20;99.90;;;;;;5001884;28;20366;-34
2022/05/11 10:22:10;;;;;;;9.85;2.25;;;17.30;99.90;;;;;;4998084;28;20060;-35
2022/05/11 10:24:57;;;;;;;8.60;1.95;;;17.40;99.90;;;;;;4977997;28;20045;-35
2022/05/11 10:27:29;;;;;;;11.48;2.28;;;17.50;99.90;;;;;;4963458;28;21350;-34
2022/05/11 10:30:03;;;;;;;13.55;2.78;;;17.60;99.90;;;;;;4980623;28;20094;-34
2022/05/11 10:32:48;;;;;;;9.80;2.75;;;17.80;99.90;;;;;;4994457;28;20513;-35
2022/05/11 10:35:25;;;;;;;10.30;2.60;;;17.80;99.90;;;;;;4999739;28;20056;-35
2022/05/11 10:38:28;;;;;;;9.65;2.25;;;17.90;99.90;;;;;;4984458;28;20085;-35
2022/05/11 10:41:05;;;;;;;12.18;3.15;;;17.90;99.90;;;;;;4997775;28;20076;-34
2022/05/11 10:43:50;;;;;;;11.35;2.80;;;17.80;99.90;;;;;;4998126;28;21542;-34
2022/05/11 10:46:27;;;;;;;11.23;2.88;;;17.80;99.90;;;;;;4989588;28;20057;-35
2022/05/11 10:48:58;;;;;;;10.98;2.15;;;17.70;99.90;;;;;;4993931;28;20052;-34
2022/05/11 10:51:55;;;;;;;13.23;2.85;;;17.70;99.90;;;;;;4997494;28;20065;-34
2022/05/11 10:54:46;;;;;;;10.88;2.97;;;17.70;99.90;;;;;;4998370;28;20149;-34
2022/05/11 10:57:59;;;;;;;12.60;2.95;;;17.70;99.90;;;;;;4982382;28;20058;-34
2022/05/11 11:00:26;;;;;;;10.32;2.70;;;17.80;99.90;;;;;;4994441;28;20057;-34
2022/05/11 11:03:24;;;;;;;8.73;2.50;;;17.90;99.90;;;;;;4995197;28;20149;-35
2022/05/11 11:08:55;;;;;;;14.43;2.63;;;18.10;99.90;;;;;;4980049;28;20078;-35
2022/05/11 11:11:36;;;;;;;9.95;2.92;;;18.20;99.90;;;;;;4984749;28;20099;-35
2022/05/11 11:14:04;;;;;;;14.15;2.60;;;18.20;99.90;;;;;;4982514;28;20121;-34
2022/05/11 11:16:32;;;;;;;8.73;2.30;;;18.30;99.90;;;;;;4971127;28;20231;-34
2022/05/11 11:18:58;;;;;;;9.02;2.60;;;18.40;99.90;;;;;;4982323;28;20069;-36
2022/05/11 11:21:24;;;;;;;10.13;2.50;;;18.50;99.90;;;;;;4981654;28;20082;-36
2022/05/11 11:24:17;;;;;;;11.10;2.80;;;18.50;99.90;;;;;;4982520;28;20121;-36
2022/05/11 11:26:49;;;;;;;12.75;3.13;;;18.50;99.90;;;;;;4970809;28;20499;-37
2022/05/11 11:29:18;;;;;;;14.43;3.00;;;18.50;99.90;;;;;;4981995;28;20428;-36
2022/05/11 11:32:01;;;;;;;11.68;2.60;;;18.50;99.90;;;;;;4981043;28;20432;-37
2022/05/11 11:34:32;;;;;;;12.15;2.78;;;18.60;99.90;;;;;;4981436;28;20690;-37
2022/05/11 11:36:59;;;;;;;;;;;18.60;99.90;;;;;;4967897;28;20061;-36
2022/05/11 11:39:43;;;;;;;12.15;2.65;;;18.70;99.90;;;;;;4984058;28;20043;-37
2022/05/11 11:42:09;;;;;;;12.70;3.13;;;18.80;99.90;;;;;;4980115;28;20363;-36
2022/05/11 11:44:41;;;;;;;11.65;3.20;;;18.90;99.90;;;;;;5023507;28;20531;-37
2022/05/11 11:47:26;;;;;;;14.30;2.97;;;18.90;99.90;;;;;;5008052;28;20102;-37
2022/05/11 11:49:57;;;;;;;14.38;3.28;;;18.90;99.90;;;;;;5022375;28;20063;-37
2022/05/11 11:52:34;;;;;;;;;;;18.90;99.90;;;;;;5016738;28;20057;-37
2022/05/11 11:55:00;;;;;;;16.77;3.10;;;18.80;99.90;;;;;;4986390;28;19936;-37
2022/05/11 11:57:29;;;;;;;9.02;2.67;;;18.70;99.90;;;;;;4970988;28;20560;-37
2022/05/11 11:59:58;;;;;;;13.52;3.17;;;18.60;99.90;;;;;;4990670;28;20049;-36
2022/05/11 12:02:36;;;;;;;14.05;3.33;;;18.50;99.90;;;;;;4987541;28;20275;-37
2022/05/11 12:05:32;;;;;;;11.07;3.25;;;18.50;99.90;;;;;;4989594;28;20053;-36
2022/05/11 12:16:26;;;;;;;12.48;3.60;;;18.20;99.90;;;;;;4976971;28;20690;-37
2022/05/11 12:19:05;;;;;;;13.32;3.33;;;18.20;99.90;;;;;;4983663;28;20092;-37
2022/05/11 12:21:36;;;;;;;11.43;3.42;;;18.20;99.90;;;;;;4986747;28;20137;-37
2022/05/11 12:24:07;;;;;;;15.50;3.60;;;18.20;99.90;;;;;;4986745;28;20057;-37
2022/05/11 12:26:39;;;;;;;11.00;3.22;;;18.30;99.90;;;;;;4973421;28;20448;-37
2022/05/11 12:31:57;;;;;;;14.98;3.47;;;18.50;99.90;;;;;;4989828;28;20516;-37
2022/05/11 12:34:25;;;;;;;14.77;3.25;;;18.50;99.90;;;;;;4986167;28;20050;-37
2022/05/11 12:36:53;;;;;;;16.23;3.42;;;18.50;99.90;;;;;;4974928;28;20057;-37
2022/05/11 12:39:32;;;;;;;17.65;3.33;;;18.60;99.90;;;;;;4987459;28;20520;-37
2022/05/11 12:41:58;;;;;;;15.20;3.40;;;18.60;99.90;;;;;;4989301;28;20217;-37
2022/05/11 12:44:30;;;;;;;9.35;2.33;;;18.60;99.90;;;;;;4988873;28;20232;-36
2022/05/11 12:46:58;;;;;;;11.73;2.78;;;18.60;99.90;;;;;;4970260;28;20572;-37
2022/05/11 12:49:26;;;;;;;10.18;2.60;;;18.60;99.90;;;;;;4983661;28;20096;-37
2022/05/11 12:52:02;;;;;;;10.85;2.42;;;18.60;99.90;;;;;;4985067;28;20056;-37
2022/05/11 12:54:31;;;;;;;10.18;2.72;;;18.60;99.90;;;;;;4987007;28;20049;-36
2022/05/11 12:57:08;;;;;;;9.45;2.83;;;18.60;99.90;;;;;;4974753;28;20068;-37
2022/05/11 12:59:35;;;;;;;11.70;2.72;;;18.60;99.90;;;;;;5007079;28;20045;-37
2022/05/11 13:02:14;;;;;;;12.63;2.53;;;18.60;99.90;;;;;;5007995;28;20049;-37
2022/05/11 13:04:52;;;;;;;11.65;2.28;;;18.60;99.90;;;;;;5005456;28;20049;-37
2022/05/11 13:07:21;;;;;;;13.93;2.58;;;18.60;99.90;;;;;;4990408;28;20060;-37
2022/05/11 13:09:51;;;;;;;12.80;3.03;;;18.70;99.90;;;;;;5004167;28;20169;-37
2022/05/11 13:12:18;;;;;;;14.43;2.90;;;18.70;99.90;;;;;;5005235;28;20041;-36
2022/05/11 13:14:52;;;;;;;17.63;3.33;;;18.60;99.90;;;;;;5004507;28;20045;-37
2022/05/11 13:17:21;;;;;;;14.15;3.38;;;18.60;99.90;;;;;;4991426;28;20052;-36
2022/05/11 13:20:00;;;;;;;13.38;3.22;;;18.70;99.90;;;;;;5007106;28;20045;-37
2022/05/11 13:22:28;;;;;;;12.20;3.10;;;18.70;99.90;;;;;;5004111;28;20120;-37
2022/05/11 13:25:05;;;;;;;10.93;2.95;;;18.90;99.90;;;;;;5001945;28;20057;-36
2022/05/11 13:27:38;;;;;;;10.77;2.67;;;19.00;99.90;;;;;;4985990;28;20072;-37
2022/05/11 13:30:12;;;;;;;14.75;3.03;;;19.00;99.90;;;;;;5001939;28;20386;-37
2022/05/11 13:32:46;;;;;;;9.80;2.83;;;19.00;99.90;;;;;;5003794;28;20056;-36
2022/05/11 13:35:21;;;;;;;13.32;3.08;;;18.90;99.90;;;;;;5005745;28;20053;-36